createdAt,value
2018-08-20T00:00:33.570Z,26.62
2018-08-20T00:05:38.581Z,26.63
2018-08-20T00:10:42.213Z,26.61
2018-08-20T00:15:45.653Z,26.59
2018-08-20T00:20:49.097Z,26.58
2018-08-20T00:25:54.875Z,26.56
2018-08-20T00:30:58.467Z,26.53
2018-08-20T00:36:01.992Z,26.52
2018-08-20T00:41:05.560Z,26.48
2018-08-20T00:46:09.078Z,26.48
2018-08-20T00:51:12.529Z,26.46
2018-08-20T00:56:16.020Z,26.40
2018-08-20T01:01:19.516Z,26.43
2018-08-20T01:06:23.372Z,26.39
2018-08-20T01:11:27.053Z,26.40
2018-08-20T01:16:30.577Z,26.37
2018-08-20T01:21:34.066Z,26.38
2018-08-20T01:26:37.622Z,26.34
2018-08-20T01:31:41.517Z,26.34
2018-08-20T01:36:45.797Z,26.31
2018-08-20T01:41:49.260Z,26.30
2018-08-20T01:46:52.761Z,26.28
2018-08-20T01:51:56.397Z,26.29
2018-08-20T02:02:02.361Z,26.26
2018-08-20T02:07:05.972Z,26.25
2018-08-20T02:12:09.584Z,26.23
2018-08-20T02:17:12.971Z,26.22
2018-08-20T02:22:16.432Z,26.19
2018-08-20T02:27:20.101Z,26.19
2018-08-20T02:32:23.934Z,26.17
2018-08-20T02:37:31.821Z,26.14
2018-08-20T02:42:35.430Z,26.14
2018-08-20T02:47:39.981Z,26.13
2018-08-20T02:52:44.541Z,26.09
2018-08-20T02:57:48.129Z,26.08
2018-08-20T03:02:51.616Z,26.09
2018-08-20T03:07:55.172Z,26.06
2018-08-20T03:12:58.659Z,26.03
2018-08-20T03:18:02.184Z,26.01
2018-08-20T03:23:06.027Z,25.98
2018-08-20T03:28:09.592Z,25.99
2018-08-20T03:33:13.061Z,25.92
2018-08-20T03:38:16.786Z,25.94
2018-08-20T03:43:20.230Z,25.93
2018-08-20T03:48:23.831Z,26.01
2018-08-20T03:53:27.324Z,25.96
2018-08-20T03:58:30.964Z,25.80
2018-08-20T04:03:34.661Z,25.82
2018-08-20T04:08:38.136Z,25.83
2018-08-20T04:13:41.633Z,25.31
2018-08-20T04:18:45.171Z,24.99
2018-08-20T04:23:48.624Z,24.79
2018-08-20T04:28:52.069Z,24.66
2018-08-20T04:33:55.518Z,24.55
2018-08-20T04:38:59.184Z,24.49
2018-08-20T04:44:02.909Z,24.35
2018-08-20T04:49:06.361Z,24.33
2018-08-20T04:54:09.841Z,24.32
2018-08-20T04:59:13.261Z,24.26
2018-08-20T05:04:16.920Z,24.22
2018-08-20T05:09:20.369Z,24.11
2018-08-20T05:14:23.841Z,24.09
2018-08-20T05:19:27.245Z,24.06
2018-08-20T05:24:30.720Z,24.07
2018-08-20T05:29:34.545Z,24.08
2018-08-20T05:34:38.060Z,24.06
2018-08-20T05:39:41.549Z,24.10
2018-08-20T05:44:44.975Z,24.13
2018-08-20T05:49:48.464Z,24.16
2018-08-20T05:54:52.041Z,24.18
2018-08-20T05:59:55.786Z,24.20
2018-08-20T06:04:59.279Z,24.21
2018-08-20T06:10:02.862Z,24.27
2018-08-20T06:15:09.253Z,24.17
2018-08-20T06:20:16.020Z,24.23
2018-08-20T06:25:19.487Z,24.26
2018-08-20T06:30:23.177Z,24.27
2018-08-20T06:35:26.923Z,24.36
2018-08-20T06:40:30.397Z,24.41
2018-08-20T06:45:33.914Z,24.61
2018-08-20T06:50:37.468Z,24.81
2018-08-20T06:55:40.949Z,24.31
2018-08-20T07:00:44.438Z,24.34
2018-08-20T07:05:47.990Z,24.32
2018-08-20T07:10:51.504Z,24.31
2018-08-20T07:15:55.505Z,24.35
2018-08-20T07:20:59.008Z,24.38
2018-08-20T07:26:02.488Z,24.39
2018-08-20T07:31:06.098Z,24.40
2018-08-20T07:36:09.797Z,24.48
2018-08-20T07:41:13.262Z,24.44
2018-08-20T07:46:16.826Z,24.51
2018-08-20T07:51:20.410Z,24.54
2018-08-20T07:56:24.005Z,24.60
2018-08-20T08:01:27.446Z,24.59
2018-08-20T08:06:30.980Z,24.65
2018-08-20T08:11:34.604Z,24.66
2018-08-20T08:16:38.740Z,24.67
2018-08-20T08:21:42.427Z,24.72
2018-08-20T08:26:46.045Z,24.74
2018-08-20T08:31:49.604Z,24.80
2018-08-20T08:36:53.052Z,24.96
2018-08-20T08:41:56.820Z,25.01
2018-08-20T08:47:00.313Z,25.07
2018-08-20T08:52:04.740Z,25.13
2018-08-20T08:57:08.350Z,25.16
2018-08-20T09:02:11.937Z,25.18
2018-08-20T09:07:15.529Z,25.25
2018-08-20T09:12:19.222Z,25.27
2018-08-20T09:17:22.792Z,25.29
2018-08-20T09:22:26.260Z,25.33
2018-08-20T09:27:29.820Z,25.34
2018-08-20T09:32:33.289Z,25.37
2018-08-20T09:37:36.825Z,25.39
2018-08-20T09:42:41.117Z,25.40
2018-08-20T09:47:44.701Z,25.43
2018-08-20T09:52:48.194Z,25.46
2018-08-20T09:57:51.699Z,25.48
2018-08-20T10:02:55.311Z,25.51
2018-08-20T10:07:58.795Z,25.52
2018-08-20T10:13:02.294Z,25.55
2018-08-20T10:18:05.930Z,25.57
2018-08-20T10:23:09.487Z,25.57
2018-08-20T10:28:13.101Z,25.56
2018-08-20T10:33:16.561Z,25.57
2018-08-20T10:38:20.007Z,25.61
2018-08-20T10:43:23.438Z,25.66
2018-08-20T10:48:26.908Z,25.64
2018-08-20T10:53:30.400Z,25.66
2018-08-20T10:58:33.929Z,25.68
2018-08-20T11:03:37.389Z,25.69
2018-08-20T11:08:40.893Z,25.69
2018-08-20T11:13:44.414Z,25.71
2018-08-20T11:18:48.178Z,25.68
2018-08-20T11:23:51.811Z,25.70
2018-08-20T11:28:55.297Z,25.80
2018-08-20T11:33:58.790Z,25.86
2018-08-20T11:39:02.509Z,25.88
2018-08-20T11:44:06.241Z,25.88
2018-08-20T11:49:09.707Z,25.89
2018-08-20T11:54:13.239Z,25.91
2018-08-20T11:59:16.921Z,25.92
2018-08-20T12:04:20.995Z,25.94
2018-08-20T12:09:24.521Z,25.95
2018-08-20T12:14:28.008Z,25.97
2018-08-20T12:19:31.597Z,25.97
2018-08-20T12:24:35.067Z,25.98
2018-08-20T12:29:38.694Z,26.01
2018-08-20T12:34:42.201Z,26.03
2018-08-20T12:39:45.794Z,26.03
2018-08-20T12:44:49.285Z,26.05
2018-08-20T12:49:52.881Z,26.05
2018-08-20T12:54:56.349Z,26.07
2018-08-20T13:00:00.014Z,26.08
2018-08-20T13:05:03.625Z,26.09
2018-08-20T13:10:07.940Z,26.10
2018-08-20T13:15:11.487Z,26.10
2018-08-20T13:20:14.952Z,26.13
2018-08-20T13:25:18.440Z,26.17
2018-08-20T13:30:22.001Z,26.19
2018-08-20T13:35:25.555Z,26.17
2018-08-20T13:40:29.043Z,26.23
2018-08-20T13:45:32.790Z,26.35
2018-08-20T13:50:37.793Z,26.34
2018-08-20T13:55:41.462Z,26.35
2018-08-20T14:00:45.075Z,26.39
2018-08-20T14:05:48.609Z,26.41
2018-08-20T14:10:52.103Z,26.42
2018-08-20T14:15:56.099Z,26.45
2018-08-20T14:21:07.559Z,26.43
2018-08-20T14:26:11.049Z,26.43
2018-08-20T14:31:15.194Z,26.44
2018-08-20T14:36:18.643Z,26.46
2018-08-20T14:41:22.841Z,26.45
2018-08-20T14:46:27.141Z,26.46
2018-08-20T14:51:30.896Z,26.45
2018-08-20T14:56:34.444Z,26.46
2018-08-20T15:01:38.270Z,26.45
2018-08-20T15:06:55.937Z,26.45
2018-08-20T15:11:59.833Z,26.45
2018-08-20T15:17:03.781Z,26.46
2018-08-20T15:22:07.313Z,26.46
2018-08-20T15:27:10.849Z,26.46
2018-08-20T15:32:14.606Z,26.45
2018-08-20T15:37:18.631Z,26.45
2018-08-20T15:42:22.557Z,26.46
2018-08-20T15:47:26.101Z,26.47
2018-08-20T15:52:29.809Z,26.46
2018-08-20T15:57:33.550Z,26.47
2018-08-20T16:02:37.501Z,26.48
2018-08-20T16:07:41.201Z,26.47
2018-08-20T16:12:44.971Z,26.53
2018-08-20T16:17:48.488Z,26.50
2018-08-20T16:22:51.988Z,26.53
2018-08-20T16:27:55.640Z,26.54
2018-08-20T16:32:59.663Z,26.54
2018-08-20T16:38:03.345Z,26.54
2018-08-20T16:43:07.071Z,26.54
2018-08-20T16:48:10.935Z,26.54
2018-08-20T16:53:14.472Z,26.53
2018-08-20T16:58:17.997Z,26.48
2018-08-20T17:03:21.482Z,26.53
2018-08-20T17:08:30.133Z,26.53
2018-08-20T17:13:33.735Z,26.55
2018-08-20T17:18:37.659Z,26.54
2018-08-20T17:23:41.186Z,26.50
2018-08-20T17:28:44.656Z,26.47
2018-08-20T17:33:48.408Z,26.48
2018-08-20T17:38:51.949Z,26.49
2018-08-20T17:43:55.696Z,26.46
2018-08-20T17:48:59.214Z,26.46
2018-08-20T17:54:03.056Z,26.46
2018-08-20T17:59:10.810Z,26.40
2018-08-20T18:04:14.382Z,26.39
2018-08-20T18:09:17.956Z,26.33
2018-08-20T18:14:24.114Z,26.33
2018-08-20T18:19:27.643Z,26.31
2018-08-20T18:24:31.155Z,26.27
2018-08-20T18:29:35.965Z,26.30
2018-08-20T18:34:39.676Z,26.31
2018-08-20T18:39:46.090Z,26.33
2018-08-20T18:44:50.673Z,26.30
2018-08-20T18:49:58.988Z,26.30
2018-08-20T18:55:03.196Z,26.30
2018-08-20T19:00:12.566Z,26.31
2018-08-20T19:05:17.570Z,26.32
2018-08-20T19:10:24.287Z,26.34
2018-08-20T19:15:37.805Z,26.30
2018-08-20T19:20:42.897Z,26.30
2018-08-20T19:25:47.306Z,26.31
2018-08-20T19:30:52.459Z,26.29
2018-08-20T19:35:56.821Z,26.31
2018-08-20T19:41:15.384Z,26.31
2018-08-20T19:46:30.525Z,26.34
2018-08-20T19:51:36.059Z,26.34
2018-08-20T19:56:40.075Z,26.33
2018-08-20T20:01:44.189Z,26.35
2018-08-20T20:06:48.411Z,26.35
2018-08-20T20:11:52.336Z,26.37
2018-08-20T20:16:56.145Z,26.36
2018-08-20T20:21:59.815Z,26.34
2018-08-20T20:27:03.815Z,26.34
2018-08-20T20:32:07.632Z,26.34
2018-08-20T20:37:11.557Z,26.32
2018-08-20T20:42:15.412Z,26.31
2018-08-20T20:47:19.350Z,26.34
2018-08-20T20:52:23.305Z,26.34
2018-08-20T20:57:27.193Z,26.34
2018-08-20T21:02:31.377Z,26.37
2018-08-20T21:07:35.441Z,26.37
2018-08-20T21:12:39.137Z,26.38
2018-08-20T21:17:43.196Z,26.38
2018-08-20T21:22:46.762Z,26.34
2018-08-20T21:27:50.256Z,26.36
2018-08-20T21:32:53.903Z,26.37
2018-08-20T21:37:57.605Z,26.37
2018-08-20T21:43:01.174Z,26.40
2018-08-20T21:48:04.925Z,26.38
2018-08-20T21:53:08.692Z,26.34
2018-08-20T21:58:12.192Z,26.36
2018-08-20T22:03:16.269Z,26.33
2018-08-20T22:08:19.843Z,26.34
2018-08-20T22:13:23.418Z,26.33
2018-08-20T22:18:31.567Z,26.35
2018-08-20T22:23:39.236Z,26.36
2018-08-20T22:28:40.494Z,26.33
2018-08-20T22:33:52.576Z,26.33
2018-08-20T22:38:57.410Z,26.34
2018-08-20T22:44:01.285Z,26.33
2018-08-20T22:49:05.021Z,26.35
2018-08-20T22:54:08.792Z,26.32
2018-08-20T22:59:13.411Z,26.30
2018-08-20T23:04:17.140Z,26.32
2018-08-20T23:09:29.062Z,26.31
2018-08-20T23:14:34.829Z,26.28
2018-08-20T23:19:38.257Z,26.32
2018-08-20T23:24:46.107Z,26.28
2018-08-20T23:29:49.669Z,26.29
2018-08-20T23:34:55.137Z,26.29
2018-08-20T23:39:58.653Z,26.25
2018-08-20T23:45:02.129Z,26.26
2018-08-20T23:50:06.420Z,26.26
2018-08-20T23:55:10.124Z,26.29
